Time;durP1;ratioP1;P1;durP2;ratioP2;P2;SDS_P1;SDS_P2;PMS_P1;PMS_P2;Temp;Humidity;BMP_temperature;BMP_pressure;BME280_temperature;BME280_humidity;BME280_pressure;Samples;Min_cycle;Max_cycle;Signal;HPM_P1;HPM_P2
2023/05/02 00:00:31;;;;;;;7.30;6.00;;;10.80;10.20;;;;;;7366468;19;20035;-72
2023/05/02 00:03:02;;;;;;;7.05;6.15;;;10.90;11.30;;;;;;7370403;19;20395;-72
2023/05/02 00:05:36;;;;;;;7.28;6.32;;;10.80;11.00;;;;;;7370957;19;20006;-72
2023/05/02 00:08:06;;;;;;;7.65;5.95;;;10.80;11.50;;;;;;7371715;19;20354;-72
2023/05/02 00:10:36;;;;;;;7.25;6.50;;;10.80;11.90;;;;;;7366204;19;20071;-71
2023/05/02 00:13:06;;;;;;;8.93;6.53;;;10.80;11.90;;;;;;7391273;19;20007;-72
2023/05/02 00:15:36;;;;;;;7.53;6.32;;;10.70;11.40;;;;;;7368715;19;20102;-71
2023/05/02 00:18:06;;;;;;;7.50;6.55;;;10.70;11.90;;;;;;7370176;19;20026;-71
2023/05/02 00:20:41;;;;;;;8.15;6.18;;;10.70;11.90;;;;;;7366120;19;20011;-71
2023/05/02 00:23:12;;;;;;;6.93;5.93;;;10.60;12.20;;;;;;7370840;19;20743;-71
2023/05/02 00:25:46;;;;;;;7.22;6.50;;;10.60;12.90;;;;;;7368375;19;20024;-71
2023/05/02 00:28:17;;;;;;;7.18;6.47;;;10.60;12.80;;;;;;7373952;19;20467;-72
2023/05/02 00:30:47;;;;;;;7.47;6.32;;;10.60;12.80;;;;;;7387861;19;20086;-71
2023/05/02 00:33:17;;;;;;;6.72;6.05;;;10.50;12.70;;;;;;7369816;19;20010;-72
2023/05/02 00:35:50;;;;;;;7.22;6.50;;;10.50;13.00;;;;;;7369286;19;20096;-72
2023/05/02 00:38:20;;;;;;;8.32;6.35;;;10.40;13.40;;;;;;7368455;19;20015;-72
2023/05/02 00:40:52;;;;;;;7.95;6.15;;;10.40;13.50;;;;;;7365669;19;20015;-71
2023/05/02 00:43:22;;;;;;;8.20;6.53;;;10.40;14.00;;;;;;7369112;19;20018;-70
2023/05/02 00:45:52;;;;;;;8.05;6.35;;;10.40;13.60;;;;;;7391961;19;20017;-71
2023/05/02 00:48:22;;;;;;;8.43;6.90;;;10.40;13.40;;;;;;7369133;19;20512;-72
2023/05/02 00:50:56;;;;;;;8.35;6.70;;;10.40;14.00;;;;;;7364256;19;20406;-72
2023/05/02 00:53:27;;;;;;;7.25;6.55;;;10.40;14.00;;;;;;7369117;19;20013;-72
2023/05/02 00:55:59;;;;;;;8.00;6.78;;;10.40;14.20;;;;;;7369321;19;20013;-72
2023/05/02 00:58:31;;;;;;;6.93;6.22;;;10.40;14.00;;;;;;7369453;19;20034;-72
2023/05/02 01:01:09;;;;;;;8.10;6.70;;;10.30;14.10;;;;;;7386256;19;20019;-71
2023/05/02 01:03:47;;;;;;;7.18;6.43;;;10.40;14.20;;;;;;7368844;19;20011;-72
2023/05/02 01:06:32;;;;;;;7.50;6.65;;;10.40;14.40;;;;;;7368323;19;20469;-70
2023/05/02 01:09:18;;;;;;;7.97;6.63;;;10.40;14.00;;;;;;7367833;19;20024;-71
2023/05/02 01:11:54;;;;;;;7.05;6.28;;;10.30;13.10;;;;;;7366638;19;20082;-70
2023/05/02 01:14:29;;;;;;;7.88;6.40;;;10.30;13.40;;;;;;7368148;19;20015;-72
2023/05/02 01:17:04;;;;;;;7.57;6.55;;;10.30;13.60;;;;;;7367859;19;20497;-72
2023/05/02 01:19:39;;;;;;;7.60;6.82;;;10.30;13.90;;;;;;7366405;19;20014;-72
2023/05/02 01:22:13;;;;;;;7.68;6.32;;;10.30;14.80;;;;;;7389618;19;20011;-72
2023/05/02 01:24:51;;;;;;;6.80;6.07;;;10.30;14.80;;;;;;7367159;19;20025;-72
2023/05/02 01:27:35;;;;;;;8.93;6.72;;;10.30;15.00;;;;;;7367801;19;20086;-70
2023/05/02 01:30:10;;;;;;;9.23;7.45;;;10.30;15.30;;;;;;7364074;19;20381;-72
2023/05/02 01:32:41;;;;;;;7.70;6.63;;;10.30;15.20;;;;;;7375388;19;20023;-72
2023/05/02 01:35:12;;;;;;;7.50;6.70;;;10.20;15.20;;;;;;7374633;19;20046;-72
2023/05/02 01:37:44;;;;;;;10.20;6.90;;;10.20;15.20;;;;;;7376254;19;20015;-72
2023/05/02 01:40:18;;;;;;;8.25;6.80;;;10.20;15.20;;;;;;7394082;19;21068;-72
2023/05/02 01:42:50;;;;;;;8.90;7.35;;;10.30;15.30;;;;;;7375066;19;20018;-72
2023/05/02 01:45:24;;;;;;;9.18;6.50;;;10.20;15.20;;;;;;7374300;19;20069;-72
2023/05/02 01:47:54;;;;;;;9.95;7.53;;;10.20;15.30;;;;;;7374842;19;20098;-71
2023/05/02 01:50:27;;;;;;;8.23;6.78;;;10.20;15.50;;;;;;7370987;19;20406;-71
2023/05/02 01:53:00;;;;;;;8.73;7.70;;;10.20;16.00;;;;;;7375341;19;20013;-72
2023/05/02 01:55:30;;;;;;;9.15;7.13;;;10.20;16.20;;;;;;7373768;19;20038;-72
2023/05/02 01:58:02;;;;;;;8.15;7.20;;;10.10;16.00;;;;;;7397021;19;20014;-73
2023/05/02 02:00:35;;;;;;;9.20;7.30;;;10.00;16.60;;;;;;7369840;19;20010;-72
2023/05/02 02:03:08;;;;;;;8.88;7.30;;;10.00;17.00;;;;;;7373899;19;20006;-72
2023/05/02 02:05:39;;;;;;;8.55;6.90;;;9.90;18.30;;;;;;7372407;19;20018;-72
2023/05/02 02:08:10;;;;;;;10.18;7.95;;;9.90;19.20;;;;;;7374168;19;20527;-72
2023/05/02 02:10:44;;;;;;;10.55;7.60;;;9.90;19.20;;;;;;7369632;19;20017;-71
2023/05/02 02:13:19;;;;;;;8.55;6.95;;;9.80;19.20;;;;;;7396955;19;20053;-71
2023/05/02 02:15:55;;;;;;;9.32;7.70;;;9.70;20.20;;;;;;7374760;19;20014;-72
2023/05/02 02:18:27;;;;;;;8.85;7.60;;;9.70;20.90;;;;;;7373577;19;20490;-70
2023/05/02 02:21:00;;;;;;;10.40;7.82;;;9.70;21.40;;;;;;7371312;19;20011;-72
2023/05/02 02:23:31;;;;;;;9.10;7.80;;;9.70;22.00;;;;;;7373331;19;20022;-71
2023/05/02 02:26:03;;;;;;;11.95;8.77;;;9.70;22.10;;;;;;7373426;19;20010;-72
2023/05/02 02:28:35;;;;;;;11.77;7.90;;;9.70;22.20;;;;;;7373554;19;20021;-72
2023/05/02 02:31:08;;;;;;;11.57;8.65;;;9.70;22.20;;;;;;7390418;19;20015;-70
2023/05/02 02:33:38;;;;;;;11.13;8.52;;;9.60;22.50;;;;;;7372976;19;20011;-72
2023/05/02 02:36:16;;;;;;;12.20;8.10;;;9.60;22.80;;;;;;7373603;19;20054;-71
2023/05/02 02:38:52;;;;;;;9.25;8.25;;;9.60;23.20;;;;;;7373622;19;20047;-71
2023/05/02 02:41:28;;;;;;;13.27;8.60;;;9.50;23.80;;;;;;7369630;19;20065;-72
2023/05/02 02:44:05;;;;;;;9.02;8.07;;;9.60;24.00;;;;;;7372080;19;20010;-72
2023/05/02 02:46:50;;;;;;;9.73;8.15;;;9.60;24.10;;;;;;7373903;19;20033;-71
2023/05/02 02:49:33;;;;;;;9.45;8.35;;;9.50;24.40;;;;;;7371672;19;20014;-72
2023/05/02 02:52:11;;;;;;;10.27;8.80;;;9.50;24.70;;;;;;7392751;19;20010;-73
2023/05/02 02:54:46;;;;;;;9.60;8.60;;;9.50;25.20;;;;;;7372781;19;20046;-71
2023/05/02 02:57:20;;;;;;;8.80;7.90;;;9.50;25.20;;;;;;7372674;19;20081;-72
2023/05/02 02:59:58;;;;;;;10.30;8.70;;;9.60;25.80;;;;;;7370171;19;20015;-72
2023/05/02 03:02:34;;;;;;;10.63;8.60;;;9.60;25.00;;;;;;7370055;19;20091;-72
2023/05/02 03:05:05;;;;;;;10.07;9.07;;;9.70;24.60;;;;;;7371197;19;20015;-72
2023/05/02 03:07:36;;;;;;;9.90;8.68;;;9.70;24.90;;;;;;7372073;19;20074;-72
2023/05/02 03:10:06;;;;;;;9.35;8.35;;;9.80;24.80;;;;;;7390911;19;20046;-71
2023/05/02 03:12:38;;;;;;;10.40;8.18;;;9.80;24.50;;;;;;7369734;19;20031;-72
2023/05/02 03:15:25;;;;;;;9.32;8.30;;;9.90;24.20;;;;;;7372190;19;20014;-71
2023/05/02 03:17:57;;;;;;;9.27;8.38;;;9.80;23.80;;;;;;7371741;19;20493;-72
2023/05/02 03:20:27;;;;;;;9.00;8.00;;;9.90;24.30;;;;;;7369472;19;20473;-73
2023/05/02 03:22:57;;;;;;;9.75;8.65;;;9.90;23.90;;;;;;7372128;19;20377;-72
2023/05/02 03:25:27;;;;;;;10.88;9.18;;;9.90;24.00;;;;;;7371396;19;20018;-71
2023/05/02 03:27:59;;;;;;;11.35;9.10;;;9.90;24.00;;;;;;7392893;19;20019;-71
2023/05/02 03:30:28;;;;;;;10.63;9.00;;;9.90;23.90;;;;;;7367993;19;20347;-72
2023/05/02 03:33:03;;;;;;;10.70;8.82;;;9.90;24.30;;;;;;7371543;19;20007;-71
2023/05/02 03:35:33;;;;;;;11.35;9.02;;;9.90;24.20;;;;;;7370817;19;20366;-71
2023/05/02 03:38:03;;;;;;;10.27;9.18;;;9.90;24.40;;;;;;7372053;19;20042;-72
2023/05/02 03:40:33;;;;;;;9.27;8.27;;;9.90;24.30;;;;;;7367655;19;20019;-71
2023/05/02 03:43:03;;;;;;;9.82;8.82;;;10.00;23.30;;;;;;7393741;19;20309;-71
2023/05/02 03:45:33;;;;;;;11.35;8.95;;;9.90;24.70;;;;;;7371293;19;20336;-72
2023/05/02 03:48:05;;;;;;;11.40;8.68;;;10.00;23.60;;;;;;7372967;19;20010;-71
2023/05/02 03:50:36;;;;;;;12.30;9.13;;;10.00;23.80;;;;;;7367732;19;20022;-71
2023/05/02 03:53:06;;;;;;;11.02;9.50;;;9.90;24.40;;;;;;7371214;19;20010;-72
2023/05/02 03:55:41;;;;;;;11.75;8.77;;;10.00;24.40;;;;;;7369144;19;20522;-71
2023/05/02 03:58:12;;;;;;;;;;;10.00;24.40;;;;;;7392333;19;20018;-71
2023/05/02 04:00:42;;;;;;;12.05;8.65;;;10.10;24.10;;;;;;7366326;19;19935;-72
2023/05/02 04:03:14;;;;;;;10.88;8.88;;;10.00;23.70;;;;;;7370439;19;20042;-71
2023/05/02 04:05:44;;;;;;;10.10;8.52;;;10.10;24.30;;;;;;7369030;19;20387;-71
2023/05/02 04:08:14;;;;;;;10.13;8.98;;;10.10;24.10;;;;;;7370260;19;20021;-71
2023/05/02 04:10:44;;;;;;;11.15;9.02;;;10.10;23.80;;;;;;7365873;19;20373;-71
2023/05/02 04:13:14;;;;;;;10.88;8.60;;;10.10;23.90;;;;;;7391100;19;20014;-70
2023/05/02 04:15:46;;;;;;;11.45;9.25;;;10.10;23.50;;;;;;7369247;19;20002;-70
2023/05/02 04:18:19;;;;;;;11.43;8.60;;;10.10;23.30;;;;;;7369711;19;20467;-71
2023/05/02 04:20:49;;;;;;;11.00;9.38;;;10.20;22.70;;;;;;7366991;19;20569;-70
2023/05/02 04:23:19;;;;;;;11.40;9.13;;;10.10;22.20;;;;;;7369821;19;20025;-71
2023/05/02 04:25:55;;;;;;;12.15;9.32;;;10.20;22.20;;;;;;7370085;19;20014;-72
2023/05/02 04:28:25;;;;;;;9.55;8.55;;;10.10;21.70;;;;;;7368514;19;20088;-72
2023/05/02 04:30:56;;;;;;;10.27;9.07;;;10.10;21.50;;;;;;7387397;19;20022;-72
2023/05/02 04:33:29;;;;;;;10.52;8.85;;;10.10;21.60;;;;;;7367584;19;20014;-72
2023/05/02 04:35:58;;;;;;;10.95;8.68;;;10.20;20.60;;;;;;7369315;19;20022;-72
2023/05/02 04:38:28;;;;;;;9.27;8.27;;;10.10;20.70;;;;;;7368584;19;20025;-71
2023/05/02 04:40:58;;;;;;;11.70;9.10;;;10.20;21.00;;;;;;7366194;19;20010;-71
2023/05/02 04:43:37;;;;;;;10.60;8.60;;;10.20;20.70;;;;;;7369890;19;20015;-72
2023/05/02 04:46:07;;;;;;;9.77;8.65;;;10.30;20.20;;;;;;7391581;19;20018;-72
2023/05/02 04:48:41;;;;;;;9.23;7.88;;;10.30;19.50;;;;;;7368764;19;20056;-70
2023/05/02 04:51:11;;;;;;;10.10;8.07;;;10.30;18.80;;;;;;7365651;19;20048;-70
2023/05/02 04:53:42;;;;;;;9.95;8.40;;;10.40;18.80;;;;;;7368236;19;20090;-71
2023/05/02 04:56:12;;;;;;;8.85;7.95;;;10.40;18.10;;;;;;7368558;19;20367;-72
2023/05/02 04:58:42;;;;;;;10.43;8.15;;;10.40;18.20;;;;;;7367528;19;20016;-72
2023/05/02 05:01:12;;;;;;;10.30;8.50;;;10.50;17.10;;;;;;7386729;19;20442;-71
2023/05/02 05:03:45;;;;;;;9.18;8.27;;;10.50;17.10;;;;;;7367509;19;20460;-71
2023/05/02 05:06:15;;;;;;;9.70;8.07;;;10.50;16.50;;;;;;7370408;19;20011;-72
2023/05/02 05:08:45;;;;;;;10.40;8.32;;;10.60;15.70;;;;;;7375349;19;20565;-72
2023/05/02 05:11:16;;;;;;;9.32;7.88;;;10.60;15.80;;;;;;7372201;19;20046;-71
2023/05/02 05:13:45;;;;;;;9.75;7.90;;;10.70;15.50;;;;;;7372986;19;20018;-72
2023/05/02 05:16:15;;;;;;;12.98;8.50;;;10.70;14.10;;;;;;7397188;19;20794;-71
2023/05/02 05:18:48;;;;;;;9.93;7.60;;;10.70;14.60;;;;;;7375009;19;20017;-71
2023/05/02 05:21:18;;;;;;;12.20;8.38;;;10.60;14.50;;;;;;7373641;19;20043;-70
2023/05/02 05:23:48;;;;;;;13.30;8.40;;;10.60;15.20;;;;;;7373474;19;20412;-71
2023/05/02 05:26:19;;;;;;;10.10;9.05;;;10.50;15.70;;;;;;7376465;19;20007;-71
2023/05/02 05:28:49;;;;;;;8.75;7.85;;;10.60;15.50;;;;;;7374330;19;20003;-72
2023/05/02 05:31:19;;;;;;;10.02;8.15;;;10.50;16.00;;;;;;7373744;19;20363;-71
2023/05/02 05:33:52;;;;;;;10.60;9.07;;;10.60;16.40;;;;;;7393497;19;20018;-71
2023/05/02 05:36:22;;;;;;;9.30;8.27;;;10.60;15.20;;;;;;7374828;19;20006;-71
2023/05/02 05:38:52;;;;;;;13.23;9.10;;;10.70;15.50;;;;;;7374016;19;20011;-72
2023/05/02 05:41:24;;;;;;;10.98;8.55;;;10.80;14.90;;;;;;7371160;19;20006;-71
2023/05/02 05:43:55;;;;;;;10.93;8.70;;;10.70;14.40;;;;;;7373887;19;20547;-71
2023/05/02 05:46:25;;;;;;;11.60;9.35;;;10.70;14.40;;;;;;7374486;19;20092;-72
2023/05/02 05:48:57;;;;;;;11.88;9.00;;;10.80;12.70;;;;;;7395673;19;20478;-71
2023/05/02 05:51:28;;;;;;;11.95;9.00;;;10.90;12.60;;;;;;7369563;19;20078;-72
2023/05/02 05:53:58;;;;;;;10.48;8.82;;;11.20;10.90;;;;;;7371450;19;20011;-71
2023/05/02 05:56:28;;;;;;;10.25;9.13;;;11.20;10.30;;;;;;7374518;19;20018;-72
2023/05/02 05:58:58;;;;;;;12.88;10.13;;;11.00;10.40;;;;;;7371536;19;20007;-72
2023/05/02 06:01:28;;;;;;;11.00;9.43;;;11.20;9.70;;;;;;7367837;19;20352;-71
2023/05/02 06:04:01;;;;;;;10.13;8.82;;;11.40;8.70;;;;;;7392532;19;20018;-71
2023/05/02 06:06:32;;;;;;;11.43;9.47;;;11.70;6.60;;;;;;7371886;19;20098;-72
2023/05/02 06:09:02;;;;;;;11.27;9.70;;;11.60;4.50;;;;;;7370096;19;20040;-71
2023/05/02 06:11:33;;;;;;;12.02;10.38;;;11.40;5.90;;;;;;7369386;19;20010;-71
2023/05/02 06:14:02;;;;;;;12.63;9.57;;;11.40;8.70;;;;;;7369443;19;20517;-71
2023/05/02 06:16:32;;;;;;;12.13;9.02;;;11.60;6.50;;;;;;7370472;19;20017;-72
2023/05/02 06:19:05;;;;;;;15.45;10.10;;;11.70;5.80;;;;;;7392983;19;20021;-72
2023/05/02 06:21:37;;;;;;;12.65;9.98;;;11.30;6.00;;;;;;7369990;19;20089;-72
2023/05/02 06:24:08;;;;;;;12.80;10.00;;;11.80;4.20;;;;;;7369276;19;20077;-71
2023/05/02 06:26:37;;;;;;;12.57;9.70;;;11.80;2.40;;;;;;7370342;19;20465;-72
2023/05/02 06:29:07;;;;;;;11.60;9.60;;;12.10;1.00;;;;;;7369260;19;20002;-70
2023/05/02 06:31:37;;;;;;;13.35;10.05;;;12.20;1.00;;;;;;7369652;19;20026;-71
2023/05/02 06:34:10;;;;;;;12.75;10.00;;;12.10;1.00;;;;;;7390906;19;20031;-73
2023/05/02 06:36:39;;;;;;;12.32;10.50;;;12.10;1.00;;;;;;7370080;19;20033;-72
2023/05/02 06:39:10;;;;;;;13.40;10.13;;;12.10;1.00;;;;;;7368335;19;20017;-70
2023/05/02 06:41:40;;;;;;;13.77;10.80;;;12.20;1.00;;;;;;7370587;19;20011;-72
2023/05/02 06:44:10;;;;;;;14.70;9.90;;;11.90;1.20;;;;;;7371048;19;20011;-71
2023/05/02 06:46:40;;;;;;;14.93;9.43;;;12.00;1.00;;;;;;7368376;19;20078;-72
2023/05/02 06:49:13;;;;;;;13.18;10.20;;;11.80;1.60;;;;;;7389801;19;20351;-71
2023/05/02 06:51:42;;;;;;;11.63;9.85;;;11.90;2.80;;;;;;7369803;19;20018;-71
2023/05/02 06:54:13;;;;;;;11.90;10.52;;;12.20;1.50;;;;;;7367958;19;20014;-72
2023/05/02 06:56:43;;;;;;;11.80;10.40;;;12.30;1.00;;;;;;7369054;19;20030;-72
2023/05/02 06:59:15;;;;;;;14.25;10.38;;;11.70;1.10;;;;;;7227627;19;2715918;-71
2023/05/02 07:01:45;;;;;;;13.40;10.82;;;11.80;1.90;;;;;;7370877;19;20573;-72
2023/05/02 07:04:18;;;;;;;15.27;11.70;;;11.80;1.60;;;;;;7393649;19;20026;-72
2023/05/02 07:06:48;;;;;;;15.25;11.95;;;12.00;1.60;;;;;;7372392;19;20039;-71
2023/05/02 07:09:18;;;;;;;16.05;11.65;;;11.50;2.10;;;;;;7369183;19;20006;-72
2023/05/02 07:11:48;;;;;;;15.25;12.38;;;11.60;3.40;;;;;;7371260;19;20031;-71
2023/05/02 07:14:18;;;;;;;13.75;12.25;;;11.90;1.80;;;;;;7370762;19;20014;-71
2023/05/02 07:16:48;;;;;;;15.50;11.63;;;11.90;1.60;;;;;;7371297;19;20089;-72
2023/05/02 07:19:21;;;;;;;16.23;12.40;;;11.90;1.00;;;;;;7373320;19;20017;-72
2023/05/02 07:21:50;;;;;;;14.00;11.57;;;11.90;2.60;;;;;;7393469;19;20014;-72
2023/05/02 07:24:20;;;;;;;16.60;12.05;;;11.60;3.90;;;;;;7370338;19;20014;-71
2023/05/02 07:26:50;;;;;;;15.07;12.93;;;11.90;3.90;;;;;;7369332;19;20494;-70
2023/05/02 07:29:20;;;;;;;16.08;13.60;;;11.90;2.10;;;;;;7365453;19;20726;-72
2023/05/02 07:31:50;;;;;;;17.05;13.27;;;11.80;1.50;;;;;;7370795;19;20687;-71
2023/05/02 07:34:23;;;;;;;15.02;13.32;;;11.90;3.20;;;;;;7370007;19;20018;-71
2023/05/02 07:36:52;;;;;;;19.02;14.90;;;11.80;2.00;;;;;;7392940;19;20409;-71
2023/05/02 07:39:22;;;;;;;18.95;15.77;;;11.70;4.10;;;;;;7368381;19;20472;-72
2023/05/02 07:41:53;;;;;;;17.42;15.57;;;11.90;3.70;;;;;;7370498;19;20018;-70
2023/05/02 07:44:23;;;;;;;20.23;16.33;;;12.30;1.90;;;;;;7369197;19;20027;-73
2023/05/02 07:46:54;;;;;;;18.80;15.80;;;12.30;1.80;;;;;;7370602;19;20070;-72
2023/05/02 07:49:27;;;;;;;20.95;16.15;;;12.20;1.00;;;;;;7367593;19;20011;-72
2023/05/02 07:51:56;;;;;;;18.20;14.68;;;12.60;1.20;;;;;;7391902;19;20442;-72
2023/05/02 07:54:27;;;;;;;20.17;16.05;;;13.00;1.00;;;;;;7368521;19;20006;-71
2023/05/02 07:57:01;;;;;;;23.13;17.38;;;12.60;1.00;;;;;;7370100;19;20414;-71
2023/05/02 07:59:32;;;;;;;21.98;17.38;;;12.60;1.00;;;;;;7367552;19;20078;-72
2023/05/02 08:02:02;;;;;;;23.33;16.92;;;12.60;1.00;;;;;;7369925;19;20025;-72
2023/05/02 08:04:34;;;;;;;24.50;17.40;;;12.90;1.00;;;;;;7370727;19;20011;-72
2023/05/02 08:07:04;;;;;;;24.95;17.92;;;12.90;1.00;;;;;;7391969;19;20011;-72
2023/05/02 08:09:34;;;;;;;22.65;18.02;;;12.70;1.00;;;;;;7366574;19;20034;-71
2023/05/02 08:12:04;;;;;;;23.00;17.40;;;12.80;1.00;;;;;;7369028;19;20431;-72
2023/05/02 08:14:34;;;;;;;20.40;17.40;;;12.80;1.00;;;;;;7367672;19;20015;-72
2023/05/02 08:17:04;;;;;;;24.60;18.75;;;13.10;1.00;;;;;;7370930;19;20347;-71
2023/05/02 08:19:37;;;;;;;29.58;22.60;;;12.90;1.00;;;;;;7366687;19;20022;-71
2023/05/02 08:22:07;;;;;;;23.60;18.67;;;13.10;1.00;;;;;;7391444;19;20010;-72
2023/05/02 08:24:37;;;;;;;22.52;18.15;;;13.30;1.00;;;;;;7368267;19;20011;-73
2023/05/02 08:27:08;;;;;;;22.67;18.25;;;13.40;1.00;;;;;;7369892;19;20011;-72
2023/05/02 08:29:38;;;;;;;25.17;18.05;;;13.50;1.00;;;;;;7365249;19;20473;-71
2023/05/02 08:32:07;;;;;;;24.75;17.92;;;14.00;1.00;;;;;;7369666;19;20011;-73
2023/05/02 08:34:40;;;;;;;21.60;17.33;;;13.70;1.00;;;;;;7367601;19;20021;-72
2023/05/02 08:37:11;;;;;;;24.33;19.02;;;13.70;1.00;;;;;;7391493;19;20351;-72
2023/05/02 08:39:40;;;;;;;23.48;18.42;;;13.70;1.00;;;;;;7364099;19;20018;-72
2023/05/02 08:42:10;;;;;;;22.17;17.83;;;13.60;1.00;;;;;;7367267;19;20106;-71
2023/05/02 08:44:40;;;;;;;22.05;17.67;;;13.70;1.00;;;;;;7366922;19;20042;-71
2023/05/02 08:47:15;;;;;;;23.80;18.05;;;13.70;1.00;;;;;;7368720;19;20023;-72
2023/05/02 08:49:48;;;;;;;27.20;19.60;;;14.10;1.00;;;;;;7364594;19;20648;-71
2023/05/02 08:52:19;;;;;;;23.45;18.30;;;14.10;1.00;;;;;;7391171;19;20039;-71
2023/05/02 08:54:50;;;;;;;22.38;18.17;;;13.40;1.00;;;;;;7367636;19;20014;-74
2023/05/02 08:57:20;;;;;;;23.25;17.67;;;14.20;1.00;;;;;;7368600;19;20055;-71
2023/05/02 08:59:50;;;;;;;24.23;19.13;;;13.90;1.00;;;;;;7364639;19;20105;-71
2023/05/02 09:02:29;;;;;;;23.95;18.30;;;14.20;1.00;;;;;;7366853;19;20022;-72
2023/05/02 09:05:07;;;;;;;25.45;18.55;;;14.10;1.00;;;;;;7367236;19;20015;-71
2023/05/02 09:07:46;;;;;;;22.85;18.27;;;14.40;1.00;;;;;;7368913;19;20034;-71
2023/05/02 09:10:17;;;;;;;29.13;19.65;;;14.70;1.00;;;;;;7387153;19;20007;-71
2023/05/02 09:12:47;;;;;;;23.58;17.50;;;14.90;1.00;;;;;;7368190;19;20537;-73
2023/05/02 09:15:18;;;;;;;23.13;18.88;;;14.80;1.00;;;;;;7366201;19;20014;-72
2023/05/02 09:17:50;;;;;;;23.70;18.63;;;14.70;1.00;;;;;;7367424;19;20401;-71
2023/05/02 09:20:23;;;;;;;23.63;18.85;;;14.70;1.00;;;;;;7364462;19;20073;-72
2023/05/02 09:22:54;;;;;;;23.45;18.63;;;15.00;1.00;;;;;;7367233;19;20019;-71
2023/05/02 09:25:24;;;;;;;25.67;19.40;;;15.70;1.00;;;;;;7366194;19;20011;-71
2023/05/02 09:27:56;;;;;;;25.55;18.67;;;15.30;1.00;;;;;;7388075;19;20404;-71
2023/05/02 09:30:27;;;;;;;25.88;19.20;;;15.40;1.00;;;;;;7362786;19;20018;-71
2023/05/02 09:32:57;;;;;;;27.80;20.60;;;14.50;1.00;;;;;;7367895;19;20006;-71
2023/05/02 09:35:30;;;;;;;26.15;20.20;;;13.70;1.00;;;;;;7365554;19;20007;-72
2023/05/02 09:38:00;;;;;;;32.08;20.90;;;14.20;1.00;;;;;;7367342;19;20033;-71
2023/05/02 09:40:31;;;;;;;32.22;20.67;;;14.30;1.00;;;;;;7363024;19;20037;-70
2023/05/02 09:43:01;;;;;;;27.00;21.70;;;14.30;1.00;;;;;;7389287;19;20496;-71
2023/05/02 09:45:31;;;;;;;28.15;20.38;;;14.40;1.00;;;;;;7366059;19;20010;-72
2023/05/02 09:48:04;;;;;;;27.15;21.10;;;14.40;1.00;;;;;;7366019;19;20493;-72
2023/05/02 09:50:38;;;;;;;25.00;21.08;;;15.20;1.00;;;;;;7362335;19;20015;-72
2023/05/02 09:53:10;;;;;;;26.73;20.30;;;15.40;1.00;;;;;;7372602;19;20019;-71
2023/05/02 09:55:41;;;;;;;24.55;19.38;;;16.10;1.00;;;;;;7372561;19;20022;-71
2023/05/02 09:58:22;;;;;;;28.73;19.40;;;15.80;1.00;;;;;;7396244;19;20474;-71
2023/05/02 10:00:53;;;;;;;23.50;18.73;;;15.20;1.00;;;;;;7369183;19;20021;-72
2023/05/02 10:03:26;;;;;;;32.22;18.42;;;15.80;1.00;;;;;;7372400;19;20491;-72
2023/05/02 10:05:59;;;;;;;23.30;19.00;;;15.80;1.00;;;;;;7373215;19;20466;-71
2023/05/02 10:08:30;;;;;;;23.25;18.10;;;16.10;1.00;;;;;;7371974;19;20098;-71
2023/05/02 10:11:01;;;;;;;22.92;17.75;;;15.20;1.00;;;;;;7368746;19;20010;-72
2023/05/02 10:13:34;;;;;;;23.98;18.13;;;15.40;1.00;;;;;;7373281;19;20034;-72
2023/05/02 10:16:05;;;;;;;23.15;17.10;;;15.80;1.00;;;;;;7394396;19;20011;-71
2023/05/02 10:18:42;;;;;;;20.48;16.75;;;16.80;1.00;;;;;;7372917;19;20018;-71
2023/05/02 10:21:18;;;;;;;22.38;17.95;;;16.30;1.00;;;;;;7371405;19;20010;-72
2023/05/02 10:23:52;;;;;;;25.05;17.95;;;16.90;1.00;;;;;;7372777;19;20096;-73
2023/05/02 10:26:22;;;;;;;22.70;18.23;;;16.90;1.00;;;;;;7373226;19;20010;-71
2023/05/02 10:28:52;;;;;;;22.17;17.30;;;16.70;1.00;;;;;;7372408;19;20006;-73
2023/05/02 10:31:23;;;;;;;21.83;17.75;;;16.80;1.00;;;;;;7388056;19;20016;-71
2023/05/02 10:33:54;;;;;;;21.65;17.50;;;17.10;1.00;;;;;;7394233;19;20379;-72
2023/05/02 10:36:29;;;;;;;19.13;16.02;;;17.00;1.00;;;;;;7370830;19;20007;-72
2023/05/02 10:38:59;;;;;;;19.45;16.52;;;17.60;1.00;;;;;;7371442;19;20010;-72
2023/05/02 10:41:32;;;;;;;21.08;17.15;;;17.40;1.00;;;;;;7371723;19;20470;-72
2023/05/02 10:44:06;;;;;;;21.85;16.13;;;17.50;1.00;;;;;;7371125;19;20415;-72
2023/05/02 10:46:39;;;;;;;18.30;15.13;;;17.40;1.00;;;;;;7372334;19;20019;-72
2023/05/02 10:49:11;;;;;;;20.25;16.73;;;17.40;1.00;;;;;;7392354;19;20010;-72
2023/05/02 10:51:44;;;;;;;18.65;16.20;;;16.70;1.00;;;;;;7371122;19;20026;-72
2023/05/02 10:54:22;;;;;;;26.50;17.10;;;16.30;1.00;;;;;;7372051;19;20037;-73
2023/05/02 10:57:08;;;;;;;17.02;14.60;;;16.50;1.00;;;;;;7370781;19;20035;-74
2023/05/02 10:59:40;;;;;;;16.83;15.00;;;16.60;1.00;;;;;;7368492;19;20038;-72
2023/05/02 11:02:39;;;;;;;17.60;14.57;;;16.60;1.00;;;;;;7372034;19;20022;-72
2023/05/02 11:05:10;;;;;;;21.35;16.25;;;16.10;1.00;;;;;;7368108;19;20497;-71
2023/05/02 11:07:42;;;;;;;24.45;16.58;;;16.00;1.00;;;;;;7371195;19;20025;-72
2023/05/02 11:10:28;;;;;;;18.95;16.10;;;15.90;1.00;;;;;;7388885;19;20016;-72
2023/05/02 11:13:00;;;;;;;21.52;17.90;;;16.10;1.00;;;;;;7372163;19;20017;-72
2023/05/02 11:15:58;;;;;;;20.98;17.95;;;16.40;1.00;;;;;;7370500;19;20021;-72
2023/05/02 11:18:28;;;;;;;20.70;16.65;;;16.80;1.00;;;;;;7371117;19;20031;-71
2023/05/02 11:21:28;;;;;;;21.92;16.73;;;17.00;1.00;;;;;;7367952;19;20093;-73
2023/05/02 11:24:34;;;;;;;25.00;17.05;;;16.80;1.00;;;;;;7369778;19;20010;-73
2023/05/02 11:27:37;;;;;;;21.60;17.92;;;17.10;1.00;;;;;;7361332;19;20010;-73
2023/05/02 11:30:12;;;;;;;25.80;19.25;;;17.30;1.00;;;;;;7366597;19;20006;-72
2023/05/02 11:33:14;;;;;;;25.30;18.50;;;17.30;1.00;;;;;;7370935;19;20347;-73
2023/05/02 11:35:46;;;;;;;23.27;18.40;;;17.60;1.00;;;;;;7369259;19;20383;-72
2023/05/02 11:38:22;;;;;;;22.55;17.63;;;16.90;1.00;;;;;;7367633;19;20471;-72
2023/05/02 11:40:56;;;;;;;23.75;19.15;;;17.30;1.00;;;;;;7367476;19;20485;-73
2023/05/02 11:43:28;;;;;;;25.10;19.45;;;16.30;1.00;;;;;;7369369;19;20431;-72
2023/05/02 11:46:04;;;;;;;;;;;16.20;1.00;;;;;;7391993;19;20510;-74
2023/05/02 11:48:34;;;;;;;24.05;19.35;;;16.10;1.00;;;;;;7367887;19;19919;-73
2023/05/02 11:51:05;;;;;;;26.30;21.48;;;16.00;1.00;;;;;;7367374;19;20002;-73
2023/05/02 11:53:42;;;;;;;28.55;20.70;;;16.00;1.00;;;;;;7369462;19;20089;-72
2023/05/02 11:56:12;;;;;;;22.25;17.83;;;16.30;1.00;;;;;;7370206;19;20018;-73
2023/05/02 11:58:43;;;;;;;24.60;17.20;;;16.40;1.00;;;;;;7368117;19;20350;-73
2023/05/02 12:01:16;;;;;;;22.25;16.73;;;15.90;1.00;;;;;;7388992;19;20010;-72
2023/05/02 12:03:48;;;;;;;23.25;17.30;;;15.90;1.00;;;;;;7368775;19;20015;-72
2023/05/02 12:06:20;;;;;;;25.17;17.52;;;15.70;1.00;;;;;;7370003;19;20478;-73
2023/05/02 12:08:54;;;;;;;24.80;17.92;;;15.70;1.00;;;;;;7367050;19;20007;-73
2023/05/02 12:11:26;;;;;;;26.15;19.45;;;15.50;1.00;;;;;;7369632;19;20490;-71
2023/05/02 12:13:56;;;;;;;30.48;21.35;;;15.50;1.00;;;;;;7368488;19;20355;-71
2023/05/02 12:16:29;;;;;;;31.70;22.77;;;15.10;1.00;;;;;;7368099;19;20058;-72
2023/05/02 12:19:00;;;;;;;32.60;22.20;;;14.90;1.00;;;;;;7387726;19;20018;-71
2023/05/02 12:21:31;;;;;;;30.98;22.42;;;14.80;1.00;;;;;;7368273;19;20014;-72
2023/05/02 12:24:03;;;;;;;27.83;20.88;;;14.80;1.00;;;;;;7366742;19;20010;-72
2023/05/02 12:26:33;;;;;;;29.88;21.80;;;14.80;1.00;;;;;;7368882;19;20014;-72
2023/05/02 12:29:05;;;;;;;30.80;21.08;;;15.00;1.00;;;;;;7366752;19;20060;-73
2023/05/02 12:31:38;;;;;;;27.77;20.85;;;15.20;1.00;;;;;;7368015;19;20042;-72
2023/05/02 12:34:08;;;;;;;27.75;19.83;;;15.40;1.00;;;;;;7389676;19;20011;-72
2023/05/02 12:36:45;;;;;;;27.60;19.33;;;15.60;1.00;;;;;;7368742;19;20023;-71
2023/05/02 12:39:15;;;;;;;27.05;19.63;;;15.80;1.00;;;;;;7364858;19;20031;-71
2023/05/02 12:41:46;;;;;;;23.95;17.83;;;15.80;1.00;;;;;;7368281;19;20081;-73
2023/05/02 12:44:16;;;;;;;24.27;17.90;;;15.90;1.00;;;;;;7367686;19;20002;-72
2023/05/02 12:47:04;;;;;;;22.63;16.23;;;15.90;1.00;;;;;;7369124;19;20018;-71
2023/05/02 12:49:34;;;;;;;25.27;16.38;;;15.60;1.00;;;;;;7364508;19;20490;-72
2023/05/02 12:52:04;;;;;;;23.25;15.02;;;15.60;1.00;;;;;;7389106;19;20418;-74
2023/05/02 12:54:34;;;;;;;20.88;14.85;;;15.70;1.00;;;;;;7365776;19;20070;-73
2023/05/02 12:57:04;;;;;;;21.77;15.45;;;15.80;1.00;;;;;;7366199;19;20011;-72
2023/05/02 12:59:34;;;;;;;18.60;14.48;;;16.00;1.00;;;;;;7363300;19;20372;-72
2023/05/02 13:02:07;;;;;;;21.67;14.77;;;15.90;1.00;;;;;;7365917;19;20022;-72
2023/05/02 13:04:38;;;;;;;21.30;15.40;;;16.10;1.00;;;;;;7366439;19;20014;-72
2023/05/02 13:07:08;;;;;;;18.90;14.90;;;16.20;1.00;;;;;;7389562;19;20025;-73